sensor_id;sensor_type;location;lat;lon;timestamp;pressure;altitude;pressure_sealevel;temperature;humidity
68859;BME280;55864;49.238;8.092;2023-08-30T00:01:57;98739.31;;;16.71;79.80
68859;BME280;55864;49.238;8.092;2023-08-30T00:03:58;98742.19;;;16.63;80.60
68859;BME280;55864;49.238;8.092;2023-08-30T00:06:02;98748.28;;;16.64;80.57
68859;BME280;55864;49.238;8.092;2023-08-30T00:08:05;98741.50;;;16.55;80.87
68859;BME280;55864;49.238;8.092;2023-08-30T00:10:06;98744.94;;;16.49;81.52
68859;BME280;55864;49.238;8.092;2023-08-30T00:12:07;98743.22;;;16.35;81.75
68859;BME280;55864;49.238;8.092;2023-08-30T00:14:07;98745.63;;;16.30;81.81
68859;BME280;55864;49.238;8.092;2023-08-30T00:16:08;98738.94;;;16.34;81.84
68859;BME280;55864;49.238;8.092;2023-08-30T00:18:09;98742.34;;;16.28;82.40
68859;BME280;55864;49.238;8.092;2023-08-30T00:20:10;98738.09;;;16.33;82.19
68859;BME280;55864;49.238;8.092;2023-08-30T00:22:11;98739.19;;;16.39;81.30
68859;BME280;55864;49.238;8.092;2023-08-30T00:24:13;98733.97;;;16.24;82.34
68859;BME280;55864;49.238;8.092;2023-08-30T00:26:13;98739.72;;;16.28;82.91
68859;BME280;55864;49.238;8.092;2023-08-30T00:28:14;98737.50;;;16.31;82.75
68859;BME280;55864;49.238;8.092;2023-08-30T00:30:14;98739.97;;;16.33;82.32
68859;BME280;55864;49.238;8.092;2023-08-30T00:32:15;98743.19;;;16.28;82.89
68859;BME280;55864;49.238;8.092;2023-08-30T00:34:15;98739.91;;;16.26;82.54
68859;BME280;55864;49.238;8.092;2023-08-30T00:36:16;98731.81;;;16.34;82.23
68859;BME280;55864;49.238;8.092;2023-08-30T00:38:16;98737.25;;;16.20;82.58
68859;BME280;55864;49.238;8.092;2023-08-30T00:40:22;98738.91;;;16.27;82.44
68859;BME280;55864;49.238;8.092;2023-08-30T00:42:23;98734.38;;;16.21;82.68
68859;BME280;55864;49.238;8.092;2023-08-30T00:44:23;98733.63;;;16.34;82.42
68859;BME280;55864;49.238;8.092;2023-08-30T00:46:26;98732.44;;;16.36;82.22
68859;BME280;55864;49.238;8.092;2023-08-30T00:48:27;98731.25;;;16.45;81.95
68859;BME280;55864;49.238;8.092;2023-08-30T00:50:28;98729.97;;;16.35;82.76
68859;BME280;55864;49.238;8.092;2023-08-30T00:52:30;98733.25;;;16.43;82.16
68859;BME280;55864;49.238;8.092;2023-08-30T00:54:30;98729.88;;;16.49;82.03
68859;BME280;55864;49.238;8.092;2023-08-30T00:56:33;98736.00;;;16.50;82.53
68859;BME280;55864;49.238;8.092;2023-08-30T00:58:34;98727.84;;;16.58;82.02
68859;BME280;55864;49.238;8.092;2023-08-30T01:00:35;98718.06;;;16.58;82.06
68859;BME280;55864;49.238;8.092;2023-08-30T01:02:36;98720.13;;;16.69;81.45
68859;BME280;55864;49.238;8.092;2023-08-30T01:04:36;98721.38;;;16.67;81.11
68859;BME280;55864;49.238;8.092;2023-08-30T01:06:37;98726.56;;;16.47;82.09
68859;BME280;55864;49.238;8.092;2023-08-30T01:08:41;98721.97;;;16.28;82.74
68859;BME280;55864;49.238;8.092;2023-08-30T01:10:50;98717.22;;;16.17;83.57
68859;BME280;55864;49.238;8.092;2023-08-30T01:13:03;98727.00;;;16.17;83.82
68859;BME280;55864;49.238;8.092;2023-08-30T01:15:10;98713.13;;;16.08;84.18
68859;BME280;55864;49.238;8.092;2023-08-30T01:17:14;98717.19;;;16.11;84.58
68859;BME280;55864;49.238;8.092;2023-08-30T01:19:30;98712.56;;;16.19;84.41
68859;BME280;55864;49.238;8.092;2023-08-30T01:21:48;98710.09;;;16.18;83.52
68859;BME280;55864;49.238;8.092;2023-08-30T01:23:57;98713.59;;;16.25;83.44
68859;BME280;55864;49.238;8.092;2023-08-30T01:26:04;98704.44;;;16.27;83.45
68859;BME280;55864;49.238;8.092;2023-08-30T01:28:10;98704.47;;;16.34;83.26
68859;BME280;55864;49.238;8.092;2023-08-30T01:30:11;98698.78;;;16.37;82.95
68859;BME280;55864;49.238;8.092;2023-08-30T01:32:12;98697.56;;;16.39;83.35
68859;BME280;55864;49.238;8.092;2023-08-30T01:34:14;98706.50;;;16.32;84.12
68859;BME280;55864;49.238;8.092;2023-08-30T01:36:16;98689.19;;;16.36;83.37
68859;BME280;55864;49.238;8.092;2023-08-30T01:38:16;98702.22;;;16.31;83.03
68859;BME280;55864;49.238;8.092;2023-08-30T01:40:18;98690.22;;;16.41;82.67
68859;BME280;55864;49.238;8.092;2023-08-30T01:42:20;98696.03;;;16.58;82.27
68859;BME280;55864;49.238;8.092;2023-08-30T01:44:22;98685.03;;;16.61;82.13
68859;BME280;55864;49.238;8.092;2023-08-30T01:46:24;98693.19;;;16.59;82.18
68859;BME280;55864;49.238;8.092;2023-08-30T01:48:26;98692.28;;;16.46;82.67
68859;BME280;55864;49.238;8.092;2023-08-30T01:50:27;98694.81;;;16.54;81.88
68859;BME280;55864;49.238;8.092;2023-08-30T01:52:28;98698.38;;;16.40;82.54
68859;BME280;55864;49.238;8.092;2023-08-30T01:54:29;98690.94;;;16.56;82.61
68859;BME280;55864;49.238;8.092;2023-08-30T01:56:30;98704.22;;;16.63;82.95
68859;BME280;55864;49.238;8.092;2023-08-30T01:58:31;98698.91;;;16.63;83.09
68859;BME280;55864;49.238;8.092;2023-08-30T02:00:34;98699.72;;;16.57;82.88
68859;BME280;55864;49.238;8.092;2023-08-30T02:02:35;98697.97;;;16.43;83.20
68859;BME280;55864;49.238;8.092;2023-08-30T02:04:36;98701.06;;;16.46;83.22
68859;BME280;55864;49.238;8.092;2023-08-30T02:06:42;98702.56;;;16.55;82.88
68859;BME280;55864;49.238;8.092;2023-08-30T02:08:48;98695.59;;;16.54;82.61
68859;BME280;55864;49.238;8.092;2023-08-30T02:10:54;98697.69;;;16.59;82.73
68859;BME280;55864;49.238;8.092;2023-08-30T02:12:57;98700.94;;;16.67;82.62
68859;BME280;55864;49.238;8.092;2023-08-30T02:15:00;98694.63;;;16.62;82.37
68859;BME280;55864;49.238;8.092;2023-08-30T02:17:03;98702.78;;;16.54;83.06
68859;BME280;55864;49.238;8.092;2023-08-30T02:19:05;98707.13;;;16.34;83.07
68859;BME280;55864;49.238;8.092;2023-08-30T02:21:06;98705.50;;;15.98;85.71
68859;BME280;55864;49.238;8.092;2023-08-30T02:23:09;98700.78;;;15.94;85.85
68859;BME280;55864;49.238;8.092;2023-08-30T02:25:11;98699.44;;;16.05;85.25
68859;BME280;55864;49.238;8.092;2023-08-30T02:27:12;98699.94;;;15.87;85.60
68859;BME280;55864;49.238;8.092;2023-08-30T02:29:14;98695.53;;;15.66;86.76
68859;BME280;55864;49.238;8.092;2023-08-30T02:31:14;98692.34;;;15.77;87.09
68859;BME280;55864;49.238;8.092;2023-08-30T02:33:16;98694.97;;;15.77;86.72
68859;BME280;55864;49.238;8.092;2023-08-30T02:35:18;98691.41;;;15.91;85.84
68859;BME280;55864;49.238;8.092;2023-08-30T02:37:19;98687.38;;;15.68;86.67
68859;BME280;55864;49.238;8.092;2023-08-30T02:39:19;98688.38;;;15.94;85.74
68859;BME280;55864;49.238;8.092;2023-08-30T02:41:20;98686.34;;;15.96;85.50
68859;BME280;55864;49.238;8.092;2023-08-30T02:43:22;98689.56;;;15.92;85.27
68859;BME280;55864;49.238;8.092;2023-08-30T02:45:23;98686.38;;;16.03;84.78
68859;BME280;55864;49.238;8.092;2023-08-30T02:47:23;98691.66;;;15.96;84.95
68859;BME280;55864;49.238;8.092;2023-08-30T02:49:25;98696.75;;;15.98;84.69
68859;BME280;55864;49.238;8.092;2023-08-30T02:51:26;98691.44;;;15.98;84.38
68859;BME280;55864;49.238;8.092;2023-08-30T02:53:26;98692.34;;;15.77;85.25
68859;BME280;55864;49.238;8.092;2023-08-30T02:55:27;98687.53;;;15.87;85.17
68859;BME280;55864;49.238;8.092;2023-08-30T02:57:27;98684.31;;;15.98;84.58
68859;BME280;55864;49.238;8.092;2023-08-30T02:59:28;98685.16;;;15.99;84.72
68859;BME280;55864;49.238;8.092;2023-08-30T03:01:29;98684.97;;;16.07;84.33
68859;BME280;55864;49.238;8.092;2023-08-30T03:03:30;98684.69;;;15.95;84.64
68859;BME280;55864;49.238;8.092;2023-08-30T03:05:32;98685.66;;;15.81;85.08
68859;BME280;55864;49.238;8.092;2023-08-30T03:07:32;98688.53;;;15.59;87.19
68859;BME280;55864;49.238;8.092;2023-08-30T03:09:33;98685.56;;;15.68;86.08
68859;BME280;55864;49.238;8.092;2023-08-30T03:11:33;98679.88;;;15.71;85.54
68859;BME280;55864;49.238;8.092;2023-08-30T03:13:34;98677.69;;;15.81;85.84
68859;BME280;55864;49.238;8.092;2023-08-30T03:15:35;98685.00;;;15.79;85.67
68859;BME280;55864;49.238;8.092;2023-08-30T03:17:37;98699.16;;;15.65;86.28
68859;BME280;55864;49.238;8.092;2023-08-30T03:19:42;98695.88;;;15.63;86.42
68859;BME280;55864;49.238;8.092;2023-08-30T03:21:44;98692.25;;;15.64;86.84
68859;BME280;55864;49.238;8.092;2023-08-30T03:23:45;98698.28;;;15.52;87.36
68859;BME280;55864;49.238;8.092;2023-08-30T03:25:45;98696.34;;;15.67;86.91
68859;BME280;55864;49.238;8.092;2023-08-30T03:27:46;98695.81;;;15.78;86.20
68859;BME280;55864;49.238;8.092;2023-08-30T03:29:46;98688.38;;;16.01;85.83
68859;BME280;55864;49.238;8.092;2023-08-30T03:31:47;98693.31;;;16.04;84.43
68859;BME280;55864;49.238;8.092;2023-08-30T03:33:48;98698.03;;;16.09;83.97
68859;BME280;55864;49.238;8.092;2023-08-30T03:35:49;98694.66;;;15.93;84.51
68859;BME280;55864;49.238;8.092;2023-08-30T03:37:51;98695.53;;;16.00;83.89
68859;BME280;55864;49.238;8.092;2023-08-30T03:39:52;98695.91;;;15.97;83.61
68859;BME280;55864;49.238;8.092;2023-08-30T03:41:52;98687.19;;;16.03;83.83
68859;BME280;55864;49.238;8.092;2023-08-30T03:43:53;98691.03;;;15.94;84.01
68859;BME280;55864;49.238;8.092;2023-08-30T03:45:54;98696.88;;;15.90;84.42
68859;BME280;55864;49.238;8.092;2023-08-30T03:47:54;98700.00;;;16.00;83.86
68859;BME280;55864;49.238;8.092;2023-08-30T03:49:55;98693.81;;;15.86;84.36
68859;BME280;55864;49.238;8.092;2023-08-30T03:51:55;98695.38;;;15.74;84.63
68859;BME280;55864;49.238;8.092;2023-08-30T03:53:58;98701.34;;;15.83;84.58
68859;BME280;55864;49.238;8.092;2023-08-30T03:55:59;98691.47;;;15.70;85.22
68859;BME280;55864;49.238;8.092;2023-08-30T03:57:59;98699.53;;;15.90;84.91
68859;BME280;55864;49.238;8.092;2023-08-30T04:00:00;98695.03;;;15.84;84.17
68859;BME280;55864;49.238;8.092;2023-08-30T04:02:00;98697.41;;;15.72;85.07
68859;BME280;55864;49.238;8.092;2023-08-30T04:04:01;98701.53;;;15.81;85.24
68859;BME280;55864;49.238;8.092;2023-08-30T04:06:02;98706.06;;;15.39;86.69
68859;BME280;55864;49.238;8.092;2023-08-30T04:08:03;98704.13;;;15.47;86.35
68859;BME280;55864;49.238;8.092;2023-08-30T04:10:06;98707.72;;;15.61;85.93
68859;BME280;55864;49.238;8.092;2023-08-30T04:12:07;98700.31;;;15.56;85.68
68859;BME280;55864;49.238;8.092;2023-08-30T04:14:07;98699.34;;;15.57;85.81
68859;BME280;55864;49.238;8.092;2023-08-30T04:16:10;98699.25;;;15.30;86.90
68859;BME280;55864;49.238;8.092;2023-08-30T04:18:10;98698.13;;;15.39;86.94
68859;BME280;55864;49.238;8.092;2023-08-30T04:20:11;98695.84;;;15.36;87.19
68859;BME280;55864;49.238;8.092;2023-08-30T04:22:12;98689.63;;;15.01;88.56
68859;BME280;55864;49.238;8.092;2023-08-30T04:24:12;98692.16;;;15.30;88.33
68859;BME280;55864;49.238;8.092;2023-08-30T04:26:14;98688.19;;;15.20;87.90
68859;BME280;55864;49.238;8.092;2023-08-30T04:28:15;98690.47;;;15.01;89.30
68859;BME280;55864;49.238;8.092;2023-08-30T04:30:16;98692.59;;;14.91;89.82
68859;BME280;55864;49.238;8.092;2023-08-30T04:32:16;98692.03;;;14.96;89.47
68859;BME280;55864;49.238;8.092;2023-08-30T04:34:17;98692.53;;;14.85;89.78
68859;BME280;55864;49.238;8.092;2023-08-30T04:36:18;98687.88;;;14.87;89.88
68859;BME280;55864;49.238;8.092;2023-08-30T04:38:18;98689.91;;;15.06;89.00
68859;BME280;55864;49.238;8.092;2023-08-30T04:40:19;98694.91;;;15.01;89.00
68859;BME280;55864;49.238;8.092;2023-08-30T04:42:21;98697.09;;;14.91;88.86
68859;BME280;55864;49.238;8.092;2023-08-30T04:44:21;98695.63;;;15.09;88.10
68859;BME280;55864;49.238;8.092;2023-08-30T04:46:22;98706.31;;;15.01;88.62
68859;BME280;55864;49.238;8.092;2023-08-30T04:48:22;98703.25;;;15.19;87.86
68859;BME280;55864;49.238;8.092;2023-08-30T04:50:23;98699.69;;;15.33;86.55
68859;BME280;55864;49.238;8.092;2023-08-30T04:52:24;98706.38;;;15.50;85.95
68859;BME280;55864;49.238;8.092;2023-08-30T04:54:24;98703.09;;;15.48;85.10
68859;BME280;55864;49.238;8.092;2023-08-30T04:56:25;98709.22;;;15.49;84.99
68859;BME280;55864;49.238;8.092;2023-08-30T04:58:29;98703.38;;;15.32;85.78
68859;BME280;55864;49.238;8.092;2023-08-30T05:00:30;98702.34;;;15.54;85.03
68859;BME280;55864;49.238;8.092;2023-08-30T05:02:31;98698.81;;;15.26;85.51
68859;BME280;55864;49.238;8.092;2023-08-30T05:04:41;98697.94;;;15.40;85.01
68859;BME280;55864;49.238;8.092;2023-08-30T05:06:41;98710.50;;;15.53;85.01
68859;BME280;55864;49.238;8.092;2023-08-30T05:08:42;98705.69;;;15.63;84.72
68859;BME280;55864;49.238;8.092;2023-08-30T05:10:42;98701.03;;;15.65;83.88
68859;BME280;55864;49.238;8.092;2023-08-30T05:12:43;98704.88;;;15.69;83.11
68859;BME280;55864;49.238;8.092;2023-08-30T05:14:46;98701.31;;;15.76;82.83
68859;BME280;55864;49.238;8.092;2023-08-30T05:16:46;98705.91;;;15.68;83.36
68859;BME280;55864;49.238;8.092;2023-08-30T05:18:47;98697.84;;;15.76;83.67
68859;BME280;55864;49.238;8.092;2023-08-30T05:20:47;98696.38;;;15.73;83.17
68859;BME280;55864;49.238;8.092;2023-08-30T05:22:48;98696.59;;;15.78;82.53
68859;BME280;55864;49.238;8.092;2023-08-30T05:24:49;98695.63;;;15.79;82.68
68859;BME280;55864;49.238;8.092;2023-08-30T05:26:50;98700.47;;;15.76;82.65
68859;BME280;55864;49.238;8.092;2023-08-30T05:28:52;98703.97;;;15.76;82.71
68859;BME280;55864;49.238;8.092;2023-08-30T05:30:54;98709.06;;;15.78;82.23
68859;BME280;55864;49.238;8.092;2023-08-30T05:33:24;98707.16;;;15.72;82.47
68859;BME280;55864;49.238;8.092;2023-08-30T05:35:37;98708.38;;;15.69;82.93
68859;BME280;55864;49.238;8.092;2023-08-30T05:37:44;98705.56;;;15.77;82.85
68859;BME280;55864;49.238;8.092;2023-08-30T05:40:04;98690.72;;;15.76;82.98
68859;BME280;55864;49.238;8.092;2023-08-30T05:42:05;98696.56;;;15.72;83.56
68859;BME280;55864;49.238;8.092;2023-08-30T05:44:06;98692.75;;;15.74;83.41
68859;BME280;55864;49.238;8.092;2023-08-30T05:46:08;98696.81;;;15.77;83.33
68859;BME280;55864;49.238;8.092;2023-08-30T05:48:09;98691.75;;;15.82;83.00
68859;BME280;55864;49.238;8.092;2023-08-30T05:50:09;98699.59;;;15.69;83.54
68859;BME280;55864;49.238;8.092;2023-08-30T05:52:10;98701.38;;;15.62;83.63
68859;BME280;55864;49.238;8.092;2023-08-30T05:54:10;98693.63;;;15.60;83.73
68859;BME280;55864;49.238;8.092;2023-08-30T05:56:11;98697.78;;;15.42;84.01
68859;BME280;55864;49.238;8.092;2023-08-30T05:58:11;98693.13;;;15.44;84.41
68859;BME280;55864;49.238;8.092;2023-08-30T06:00:13;98685.38;;;15.42;84.57
68859;BME280;55864;49.238;8.092;2023-08-30T06:02:18;98690.38;;;15.37;85.80
68859;BME280;55864;49.238;8.092;2023-08-30T06:04:18;98686.84;;;15.51;85.36
68859;BME280;55864;49.238;8.092;2023-08-30T06:06:19;98692.53;;;15.48;85.34
68859;BME280;55864;49.238;8.092;2023-08-30T06:08:19;98691.19;;;15.59;85.50
68859;BME280;55864;49.238;8.092;2023-08-30T06:10:20;98693.25;;;15.63;84.39
68859;BME280;55864;49.238;8.092;2023-08-30T06:12:21;98690.13;;;15.53;83.73
68859;BME280;55864;49.238;8.092;2023-08-30T06:14:22;98695.72;;;15.65;83.78
68859;BME280;55864;49.238;8.092;2023-08-30T06:16:23;98678.88;;;15.72;83.78
68859;BME280;55864;49.238;8.092;2023-08-30T06:18:29;98686.97;;;15.71;83.25
68859;BME280;55864;49.238;8.092;2023-08-30T06:20:29;98694.00;;;15.85;82.95
68859;BME280;55864;49.238;8.092;2023-08-30T06:22:30;98693.44;;;15.89;83.57
68859;BME280;55864;49.238;8.092;2023-08-30T06:24:30;98688.66;;;15.78;84.48
68859;BME280;55864;49.238;8.092;2023-08-30T06:26:31;98689.47;;;15.72;85.12
68859;BME280;55864;49.238;8.092;2023-08-30T06:28:32;98689.06;;;15.75;84.61
68859;BME280;55864;49.238;8.092;2023-08-30T06:30:33;98705.91;;;15.68;85.14
68859;BME280;55864;49.238;8.092;2023-08-30T06:32:34;98698.06;;;15.53;85.10
68859;BME280;55864;49.238;8.092;2023-08-30T06:34:36;98705.00;;;15.54;84.60
68859;BME280;55864;49.238;8.092;2023-08-30T06:36:36;98700.28;;;15.50;85.31
68859;BME280;55864;49.238;8.092;2023-08-30T06:38:37;98699.72;;;15.82;84.07
68859;BME280;55864;49.238;8.092;2023-08-30T06:40:43;98701.53;;;15.81;84.15
68859;BME280;55864;49.238;8.092;2023-08-30T06:42:43;98697.22;;;15.74;83.96
68859;BME280;55864;49.238;8.092;2023-08-30T06:44:44;98704.44;;;15.59;84.55
68859;BME280;55864;49.238;8.092;2023-08-30T06:46:45;98701.97;;;15.57;84.67
68859;BME280;55864;49.238;8.092;2023-08-30T06:48:45;98702.78;;;15.58;83.56
68859;BME280;55864;49.238;8.092;2023-08-30T06:50:47;98707.50;;;15.62;84.09
68859;BME280;55864;49.238;8.092;2023-08-30T06:52:48;98700.41;;;15.69;83.90
68859;BME280;55864;49.238;8.092;2023-08-30T06:54:48;98700.06;;;15.72;84.04
68859;BME280;55864;49.238;8.092;2023-08-30T06:57:02;98698.13;;;15.87;83.06
68859;BME280;55864;49.238;8.092;2023-08-30T06:59:02;98690.41;;;15.92;82.56
68859;BME280;55864;49.238;8.092;2023-08-30T07:01:03;98686.47;;;15.82;82.89
68859;BME280;55864;49.238;8.092;2023-08-30T07:03:04;98686.50;;;15.88;82.74
68859;BME280;55864;49.238;8.092;2023-08-30T07:05:05;98682.72;;;15.70;83.65
68859;BME280;55864;49.238;8.092;2023-08-30T07:07:07;98684.72;;;15.68;84.21
68859;BME280;55864;49.238;8.092;2023-08-30T07:09:08;98698.22;;;15.45;85.43
68859;BME280;55864;49.238;8.092;2023-08-30T07:11:08;98688.31;;;15.88;83.97
68859;BME280;55864;49.238;8.092;2023-08-30T07:13:09;98688.72;;;15.85;84.00
68859;BME280;55864;49.238;8.092;2023-08-30T07:15:10;98693.63;;;15.88;83.87
68859;BME280;55864;49.238;8.092;2023-08-30T07:17:10;98683.28;;;15.65;84.99
68859;BME280;55864;49.238;8.092;2023-08-30T07:19:11;98686.69;;;15.87;83.62
68859;BME280;55864;49.238;8.092;2023-08-30T07:21:12;98683.50;;;15.98;83.13
68859;BME280;55864;49.238;8.092;2023-08-30T07:23:14;98679.03;;;15.98;83.07
68859;BME280;55864;49.238;8.092;2023-08-30T07:25:15;98677.44;;;16.11;83.23
68859;BME280;55864;49.238;8.092;2023-08-30T07:27:16;98672.88;;;15.91;83.02
68859;BME280;55864;49.238;8.092;2023-08-30T07:29:17;98672.03;;;16.25;81.64
68859;BME280;55864;49.238;8.092;2023-08-30T07:31:17;98675.56;;;16.45;81.25
68859;BME280;55864;49.238;8.092;2023-08-30T07:33:18;98674.91;;;15.96;82.73
68859;BME280;55864;49.238;8.092;2023-08-30T07:35:18;98678.38;;;16.31;82.03
68859;BME280;55864;49.238;8.092;2023-08-30T07:37:20;98678.91;;;16.54;80.97
68859;BME280;55864;49.238;8.092;2023-08-30T07:39:22;98678.69;;;16.55;80.57
68859;BME280;55864;49.238;8.092;2023-08-30T07:41:22;98687.75;;;16.33;81.51
68859;BME280;55864;49.238;8.092;2023-08-30T07:43:23;98683.19;;;16.55;80.84
68859;BME280;55864;49.238;8.092;2023-08-30T07:45:24;98692.22;;;16.73;80.14
68859;BME280;55864;49.238;8.092;2023-08-30T07:47:25;98686.50;;;16.83;79.21
68859;BME280;55864;49.238;8.092;2023-08-30T07:49:26;98692.81;;;16.75;79.86
68859;BME280;55864;49.238;8.092;2023-08-30T07:51:27;98693.81;;;16.61;80.42
68859;BME280;55864;49.238;8.092;2023-08-30T07:53:27;98700.97;;;16.74;79.66
68859;BME280;55864;49.238;8.092;2023-08-30T07:55:29;98697.94;;;16.90;78.82
68859;BME280;55864;49.238;8.092;2023-08-30T07:57:29;98700.44;;;16.91;79.45
68859;BME280;55864;49.238;8.092;2023-08-30T07:59:33;98696.16;;;16.97;78.51
68859;BME280;55864;49.238;8.092;2023-08-30T08:01:33;98702.47;;;16.96;78.99
68859;BME280;55864;49.238;8.092;2023-08-30T08:03:34;98699.81;;;17.09;77.83
68859;BME280;55864;49.238;8.092;2023-08-30T08:05:35;98700.44;;;17.05;77.84
68859;BME280;55864;49.238;8.092;2023-08-30T08:07:38;98697.78;;;17.05;78.39
68859;BME280;55864;49.238;8.092;2023-08-30T08:09:39;98698.00;;;17.23;77.67
68859;BME280;55864;49.238;8.092;2023-08-30T08:11:41;98708.66;;;17.29;76.32
68859;BME280;55864;49.238;8.092;2023-08-30T08:13:41;98696.59;;;17.20;76.37
68859;BME280;55864;49.238;8.092;2023-08-30T08:15:42;98700.91;;;17.28;76.44
68859;BME280;55864;49.238;8.092;2023-08-30T08:17:42;98697.00;;;17.37;75.88
68859;BME280;55864;49.238;8.092;2023-08-30T08:19:43;98693.34;;;17.31;76.22
68859;BME280;55864;49.238;8.092;2023-08-30T08:21:44;98701.91;;;17.40;75.80
68859;BME280;55864;49.238;8.092;2023-08-30T08:23:44;98700.28;;;17.45;76.06
68859;BME280;55864;49.238;8.092;2023-08-30T08:25:45;98699.66;;;17.30;76.06
68859;BME280;55864;49.238;8.092;2023-08-30T08:27:46;98700.50;;;17.37;75.87
68859;BME280;55864;49.238;8.092;2023-08-30T08:29:47;98704.97;;;17.43;76.49
68859;BME280;55864;49.238;8.092;2023-08-30T08:31:47;98704.19;;;17.56;75.26
68859;BME280;55864;49.238;8.092;2023-08-30T08:33:51;98710.31;;;17.63;74.93
68859;BME280;55864;49.238;8.092;2023-08-30T08:35:51;98712.16;;;17.49;75.06
68859;BME280;55864;49.238;8.092;2023-08-30T08:37:52;98710.09;;;17.51;75.35
68859;BME280;55864;49.238;8.092;2023-08-30T08:39:52;98707.66;;;17.56;74.53
68859;BME280;55864;49.238;8.092;2023-08-30T08:41:53;98711.75;;;17.52;75.32
68859;BME280;55864;49.238;8.092;2023-08-30T08:43:56;98707.84;;;17.68;74.86
68859;BME280;55864;49.238;8.092;2023-08-30T08:45:59;98714.41;;;17.52;75.33
68859;BME280;55864;49.238;8.092;2023-08-30T08:48:01;98710.88;;;17.45;75.13
68859;BME280;55864;49.238;8.092;2023-08-30T08:50:03;98707.22;;;17.66;74.79
68859;BME280;55864;49.238;8.092;2023-08-30T08:52:04;98714.19;;;17.80;74.26
68859;BME280;55864;49.238;8.092;2023-08-30T08:54:06;98706.84;;;17.69;74.19
68859;BME280;55864;49.238;8.092;2023-08-30T08:56:07;98710.94;;;17.65;73.73
68859;BME280;55864;49.238;8.092;2023-08-30T08:58:08;98709.28;;;17.90;73.54
68859;BME280;55864;49.238;8.092;2023-08-30T09:00:11;98705.56;;;18.04;72.94
68859;BME280;55864;49.238;8.092;2023-08-30T09:02:14;98702.63;;;18.25;72.27
68859;BME280;55864;49.238;8.092;2023-08-30T09:04:14;98711.22;;;18.27;71.77
68859;BME280;55864;49.238;8.092;2023-08-30T09:06:15;98704.31;;;18.70;69.57
68859;BME280;55864;49.238;8.092;2023-08-30T09:08:16;98711.59;;;18.88;69.78
68859;BME280;55864;49.238;8.092;2023-08-30T09:10:17;98711.84;;;18.87;68.67
68859;BME280;55864;49.238;8.092;2023-08-30T09:12:17;98706.44;;;19.00;68.64
68859;BME280;55864;49.238;8.092;2023-08-30T09:14:18;98713.50;;;18.81;67.94
68859;BME280;55864;49.238;8.092;2023-08-30T09:16:21;98708.81;;;18.76;68.08
68859;BME280;55864;49.238;8.092;2023-08-30T09:18:21;98709.34;;;18.85;67.89
68859;BME280;55864;49.238;8.092;2023-08-30T09:20:22;98713.38;;;18.63;68.95
68859;BME280;55864;49.238;8.092;2023-08-30T09:22:22;98705.09;;;18.77;68.74
68859;BME280;55864;49.238;8.092;2023-08-30T09:24:23;98713.09;;;18.77;68.99
68859;BME280;55864;49.238;8.092;2023-08-30T09:26:24;98716.31;;;18.86;68.26
68859;BME280;55864;49.238;8.092;2023-08-30T09:28:24;98712.28;;;18.77;68.79
68859;BME280;55864;49.238;8.092;2023-08-30T09:30:25;98712.97;;;19.04;68.92
68859;BME280;55864;49.238;8.092;2023-08-30T09:32:27;98707.63;;;19.35;66.48
68859;BME280;55864;49.238;8.092;2023-08-30T09:34:27;98705.47;;;19.75;66.18
68859;BME280;55864;49.238;8.092;2023-08-30T09:36:33;98707.59;;;19.91;65.38
68859;BME280;55864;49.238;8.092;2023-08-30T09:38:33;98702.59;;;20.19;63.99
68859;BME280;55864;49.238;8.092;2023-08-30T09:40:34;98703.19;;;20.21;64.68
68859;BME280;55864;49.238;8.092;2023-08-30T09:42:35;98708.38;;;20.34;63.54
68859;BME280;55864;49.238;8.092;2023-08-30T09:44:40;98704.13;;;20.63;62.36
68859;BME280;55864;49.238;8.092;2023-08-30T09:46:42;98699.59;;;20.63;62.51
68859;BME280;55864;49.238;8.092;2023-08-30T09:48:44;98690.28;;;20.84;61.45
68859;BME280;55864;49.238;8.092;2023-08-30T09:50:46;98694.41;;;20.68;61.35
68859;BME280;55864;49.238;8.092;2023-08-30T09:52:48;98684.75;;;20.85;60.48
68859;BME280;55864;49.238;8.092;2023-08-30T09:54:49;98691.53;;;21.29;60.75
68859;BME280;55864;49.238;8.092;2023-08-30T09:56:51;98686.06;;;21.35;59.56
68859;BME280;55864;49.238;8.092;2023-08-30T09:58:52;98687.13;;;21.34;58.49
68859;BME280;55864;49.238;8.092;2023-08-30T10:00:54;98695.72;;;21.36;60.59
68859;BME280;55864;49.238;8.092;2023-08-30T10:02:55;98685.97;;;21.53;58.30
68859;BME280;55864;49.238;8.092;2023-08-30T10:04:58;98679.28;;;21.86;58.24
68859;BME280;55864;49.238;8.092;2023-08-30T10:07:01;98689.22;;;22.25;57.58
68859;BME280;55864;49.238;8.092;2023-08-30T10:09:03;98680.47;;;22.29;56.09
68859;BME280;55864;49.238;8.092;2023-08-30T10:11:04;98674.66;;;22.32;55.76
68859;BME280;55864;49.238;8.092;2023-08-30T10:13:06;98676.38;;;22.50;55.89
68859;BME280;55864;49.238;8.092;2023-08-30T10:15:07;98671.59;;;22.52;55.18
68859;BME280;55864;49.238;8.092;2023-08-30T10:17:09;98662.34;;;22.71;55.88
68859;BME280;55864;49.238;8.092;2023-08-30T10:19:15;98665.00;;;22.71;54.26
68859;BME280;55864;49.238;8.092;2023-08-30T10:21:18;98658.34;;;22.85;53.37
68859;BME280;55864;49.238;8.092;2023-08-30T10:23:19;98658.69;;;23.05;53.33
68859;BME280;55864;49.238;8.092;2023-08-30T10:25:22;98656.41;;;22.97;52.44
68859;BME280;55864;49.238;8.092;2023-08-30T10:27:26;98660.38;;;23.40;54.33
68859;BME280;55864;49.238;8.092;2023-08-30T10:29:30;98655.63;;;23.13;52.66
68859;BME280;55864;49.238;8.092;2023-08-30T10:31:32;98650.81;;;22.99;52.00
68859;BME280;55864;49.238;8.092;2023-08-30T10:33:46;98646.16;;;22.38;53.36
68859;BME280;55864;49.238;8.092;2023-08-30T10:35:47;98639.94;;;22.61;53.36
68859;BME280;55864;49.238;8.092;2023-08-30T10:37:56;98637.41;;;22.82;51.87
68859;BME280;55864;49.238;8.092;2023-08-30T10:39:59;98638.81;;;22.73;52.22
68859;BME280;55864;49.238;8.092;2023-08-30T10:42:00;98632.66;;;22.73;51.41
68859;BME280;55864;49.238;8.092;2023-08-30T10:44:01;98635.84;;;22.58;51.94
68859;BME280;55864;49.238;8.092;2023-08-30T10:46:03;98628.09;;;22.33;52.46